Forside
METAR-TAF:

METAR-TAF

Lufthavne :

Kugaaruk, Nunavut, Canada

Breddekreds: 68-32N, længdekreds: 089-49W, højde: 15 m

Aktuelle vejr

Denne rapport blev lavet for 43 minutter siden, kl. 01:00 UTC
Vind 17 kt fra sydvest
Temperatur -36°C
Fugtighed 66%
Tryk 1019 hPa
Sigt: 24.1 km
skyfri
lavt drivende sne

METAR: CYBB 240100Z 22017KT 15SM DRSN SKC M36/M40 A3009 RMK S0.0 AFT 16UTC/0.0 SLP195

Tid: 18:43 (01:43 UTC)

Vejrudsigter

Denne rapport blev lavet for 8 timer og 5 minutter siden, kl. 17:38 UTC
Foreløbig gælder fra 23 på 18 UTC til 24 på 01 UTC
Vind 15 kt fra sydvest
Sigt: 10 km
skyfri
Midlertidig
fra 23 på 18 UTC til 24 på 01 UTC
Sigt: 6.4 km
iskrystaller, blæsende sne

TAF: CYBB 231738Z 2318/2401 22015KT P6SM SKC TEMPO 2318/2401 4SM IC BLSN RMK NXT FCST WILL BE ISSUED AT 241945Z

Vejrobservationer og prognoser fra mere end 4000 lufthavne (METAR og TAF).

De gule og røde prikker repræsenterer de meteorologiske stationer.

Flyt musen over at se navnet på stationen.

Så klik over at se vejr observationer og prognoser.

At skifte det kort: Klik på de grønne knapper med et sort kors for at zoome ind; på den grønne knap med en bindestreg for at zoome ud; eller på de grønne pile for tilstødende kort.


METAR-TAF: